EDT,Max TemperatureF,Mean TemperatureF,Min TemperatureF,Max Dew PointF,MeanDew PointF,Min DewpointF,Max Humidity, Mean Humidity, Min Humidity, Max Sea Level PressureIn, Mean Sea Level PressureIn, Min Sea Level PressureIn, Max VisibilityMiles, Mean VisibilityMiles, Min VisibilityMiles, Max Wind SpeedMPH, Mean Wind SpeedMPH, Max Gust SpeedMPH,PrecipitationIn, CloudCover, Events, WindDirDegrees
2007-9-1,79,71,63,66,63,62,100,79,58,30.24,30.12,30.02,8,4,0,9,2,13,0.00,5,Fog,2
2007-9-2,79,71,63,62,59,53,87,72,56,30.26,30.21,30.16,10,9,5,9,2,12,0.00,4,,137
2007-9-3,85,72,59,63,60,57,96,70,43,30.27,30.17,30.07,9,4,0,15,4,18,0.00,2,Fog,332
2007-9-4,86,73,60,63,57,48,93,60,27,30.17,30.07,30.01,10,7,2,10,2,12,0.00,0,,303
2007-9-5,87,71,55,60,55,52,93,61,29,30.15,30.10,30.05,10,8,4,9,2,13,0.00,0,,148
2007-9-6,86,72,58,63,59,56,96,68,40,30.26,30.21,30.15,10,7,3,15,4,21,0.00,0,,171
2007-9-7,83,72,60,63,60,55,96,69,42,30.27,30.20,30.13,10,9,6,15,3,21,0.00,1,,167
2007-9-8,86,71,56,61,57,53,93,64,34,30.21,30.15,30.03,10,5,0,12,2,17,0.00,1,Fog,155
2007-9-9,88,72,56,62,57,54,93,62,31,30.15,30.05,29.96,10,7,1,9,1,12,0.00,1,,307
2007-9-10,87,75,62,66,62,57,93,67,40,30.09,30.02,29.96,10,8,6,10,1,14,0.00,3,,100
2007-9-11,85,73,61,64,60,55,96,68,40,30.01,29.93,29.88,10,8,2,14,4,20,T,1,,325
2007-9-12,81,73,64,63,59,51,87,65,42,30.07,30.01,29.96,10,9,8,14,7,17,0.00,4,,334
2007-9-13,76,70,63,66,61,55,87,78,68,30.20,30.12,30.06,10,7,3,13,5,16,T,7,Rain,165
2007-9-14,71,68,64,67,65,63,93,89,84,30.15,30.06,29.95,10,4,1,14,3,16,3.40,7,Rain-Thunderstorm,160
2007-9-15,72,64,56,61,53,42,93,67,40,30.17,30.08,30.00,10,10,6,21,10,25,0.00,2,,346
2007-9-16,69,58,47,53,48,44,93,70,47,30.29,30.22,30.17,10,10,10,12,3,13,0.00,2,,150
2007-9-17,71,61,50,55,51,48,93,73,53,30.34,30.29,30.24,10,8,1,12,3,14,0.00,1,,154
2007-9-18,75,63,50,54,51,48,96,69,41,30.38,30.30,30.22,10,5,0,12,2,17,0.00,2,Fog,104
2007-9-19,77,64,50,56,52,48,96,72,47,30.29,30.22,30.14,10,9,6,13,3,16,0.00,1,,14
2007-9-20,73,62,50,61,54,48,96,79,61,30.24,30.17,30.10,10,8,0,13,3,14,0.00,6,Fog,340
2007-9-21,73,69,64,63,62,60,93,81,68,30.21,30.13,30.06,10,8,2,9,2,12,0.00,8,,169
2007-9-22,84,74,63,64,63,58,93,68,43,30.22,30.15,30.08,10,7,4,8,1,14,T,4,,149
2007-9-23,85,72,58,63,60,57,100,72,43,30.25,30.21,30.15,10,6,0,8,2,10,0.00,1,Fog,337
2007-9-24,84,71,58,63,60,57,93,68,43,30.26,30.21,30.17,10,9,7,10,1,14,0.00,0,,122
2007-9-25,84,71,58,63,60,55,96,72,47,30.31,30.23,30.13,10,4,0,10,1,14,0.00,2,Fog,190
2007-9-26,83,70,57,63,59,55,96,68,40,30.24,30.17,30.03,10,3,0,12,1,16,0.00,4,Fog,164
2007-9-27,81,67,52,61,55,50,93,68,42,30.11,30.02,29.92,10,6,0,14,3,17,0.00,1,Fog,329
2007-9-28,76,63,50,60,50,40,90,60,29,30.22,30.07,29.94,10,9,7,23,9,28,0.00,0,,343
2007-9-29,77,59,41,47,41,23,93,54,14,30.41,30.33,30.23,10,10,2,12,2,15,0.00,0,,333
2007-9-30,73,57,40,48,43,38,96,65,34,30.48,30.42,30.38,10,9,2,13,2,15,0.00,0,,135